Club Med II — FNIR — position and weather

sailwx.info

Track history (hours):
 
Tides and Currents Weather Stations Pressure Air Temp Water Temp Dewpoint Dewpoint Depression Visibility Wind Speed Wind Dir Waves Ship Positions

Club Med II

Operator: V.Ships Leisure S.A.M

Last reported at 2019-Oct-22 22:26 UTC. Time now 2019-Oct-23 00:46 UTC.
Position N 36°39' W 001°57'.

Length 187 m; draft 5.3 m.

Type: Ship. MMSI: 227194000.

Date/timePositionNaut miles runAvg speedWind from/ knotsBaromVisibWave heightAir tempDewpointWater temp
2019-Oct-22 22:26N 36°39' W 001°57'185 6.3
2019-Oct-21 17:15N 39°26' W 000°17'2 5.0
2019-Oct-21 16:55N 39°28' W 000°18'0 0.0
2019-Oct-21 16:25N 39°28' W 000°18'0 0.0
2019-Oct-21 15:55N 39°28' W 000°18'0 0.0
2019-Oct-21 15:25N 39°28' W 000°18'0 0.0
2019-Oct-21 14:58N 39°28' W 000°18'0 0.0
2019-Oct-21 14:25N 39°28' W 000°18'0 0.0
2019-Oct-21 13:55N 39°28' W 000°18'0 0.0
2019-Oct-21 13:25N 39°28' W 000°18'0 0.0
2019-Oct-21 12:55N 39°28' W 000°18'0 0.0
2019-Oct-21 12:28N 39°28' W 000°18'0 0.0
2019-Oct-21 11:58N 39°28' W 000°18'0 0.0
2019-Oct-21 11:28N 39°28' W 000°18'0 0.0
2019-Oct-21 10:55N 39°28' W 000°18'0 0.0
2019-Oct-21 10:25N 39°28' W 000°18'0 0.0
2019-Oct-21 09:55N 39°28' W 000°18'0 0.0
2019-Oct-21 09:28N 39°28' W 000°18'0 0.0
2019-Oct-21 08:55N 39°28' W 000°18'0 0.0
2019-Oct-21 08:25N 39°28' W 000°18'0 0.0
2019-Oct-21 07:55N 39°28' W 000°18'0 0.0
2019-Oct-21 07:25N 39°28' W 000°18'0 0.0
2019-Oct-21 07:00N 39°28' W 000°18'1 2.3
2019-Oct-21 06:30N 39°27' W 000°18'4 7.2
2019-Oct-21 06:00N 39°24' W 000°14'93 9.6
2019-Oct-20 20:17N 39°01' E 001°42'410.0
2019-Oct-20 19:54N 38°57' E 001°42'410.2
2019-Oct-20 19:30N 38°56' E 001°37'510.6
2019-Oct-20 19:00N 38°54' E 001°30'3 0.2
2019-Oct-20 05:59N 38°55' E 001°27'0 0.6
2019-Oct-20 05:29N 38°54' E 001°27'4 9.0
2019-Oct-20 04:59N 38°54' E 001°32'5213.2
2019-Oct-20 01:01N 39°03' E 002°38'013.1
2019-Oct-20 01:00N 39°03' E 002°39'913.3
2019-Oct-20 00:20N 39°05' E 002°50'513.4
2019-Oct-19 23:59N 39°05' E 002°56'913.6
2019-Oct-19 23:19N 39°10' E 003°06'1713.6
2019-Oct-19 22:06N 39°19' E 003°24'513.6
2019-Oct-19 21:45N 39°21' E 003°29'267 5.7
2019-Oct-17 22:55N 43°02' E 006°49'13 7.1
2019-Oct-17 21:03N 43°14' E 006°58'0 7.4
2019-Oct-17 21:00N 43°14' E 006°59'4 7.3
2019-Oct-17 20:31N 43°17' E 007°01'4 7.3
2019-Oct-17 20:00N 43°21' E 007°04'4 7.2
2019-Oct-17 19:30N 43°24' E 007°06'4 7.4
2019-Oct-17 19:00N 43°27' E 007°09'4 7.5
2019-Oct-17 18:30N 43°30' E 007°11'4 8.9
2019-Oct-17 18:01N 43°34' E 007°14'713.3
2019-Oct-17 17:30N 43°40' E 007°17'1 2.6
2019-Oct-17 17:00N 43°42' E 007°17'0 0.0
2019-Oct-17 16:30N 43°42' E 007°17'0 0.0
2019-Oct-17 16:00N 43°42' E 007°17'0 0.0
2019-Oct-17 15:30N 43°42' E 007°17'0 0.0
2019-Oct-17 15:00N 43°42' E 007°17'0 0.0
2019-Oct-17 14:30N 43°42' E 007°17'0 0.0
2019-Oct-17 14:00N 43°42' E 007°17'0 0.0
2019-Oct-17 13:30N 43°42' E 007°17'0 0.0
2019-Oct-17 13:00N 43°42' E 007°17'0 0.0
2019-Oct-17 12:30N 43°42' E 007°17'0 0.0
2019-Oct-17 12:00N 43°42' E 007°17'0 0.0
2019-Oct-17 11:30N 43°42' E 007°17'0 0.0
2019-Oct-17 11:00N 43°42' E 007°17'0 0.0
2019-Oct-17 10:30N 43°42' E 007°17'0 0.0
2019-Oct-17 10:00N 43°42' E 007°17'0 0.0
2019-Oct-17 09:30N 43°42' E 007°17'0 0.0
2019-Oct-17 09:00N 43°42' E 007°17'0 0.0
2019-Oct-17 08:30N 43°42' E 007°17'0 0.0
2019-Oct-17 08:00N 43°42' E 007°17'0 0.0
2019-Oct-17 07:30N 43°42' E 007°17'0 0.0
2019-Oct-17 07:00N 43°42' E 007°17'0 0.0
2019-Oct-17 06:30N 43°42' E 007°17'0 0.0
2019-Oct-17 06:00N 43°42' E 007°17'0 0.0
2019-Oct-17 05:30N 43°42' E 007°17'0 0.0
2019-Oct-17 05:00N 43°42' E 007°17'0 0.6
2019-Oct-17 04:30N 43°41' E 007°17'3 5.8
2019-Oct-17 04:00N 43°38' E 007°17'3 6.7
2019-Oct-17 03:30N 43°35' E 007°16'4 8.1
2019-Oct-17 03:01N 43°31' E 007°15'4 8.0
2019-Oct-17 02:31N 43°28' E 007°12'4 8.5
2019-Oct-17 02:01N 43°26' E 007°07'4 7.2
2019-Oct-17 01:31N 43°24' E 007°03'4 7.2
2019-Oct-17 01:01N 43°22' E 006°59'4 7.4
2019-Oct-17 00:30N 43°20' E 006°54'3 7.0
2019-Oct-17 00:01N 43°18' E 006°50'5 6.8
2019-Oct-16 23:18N 43°18' E 006°44'2 7.0
2019-Oct-16 22:59N 43°18' E 006°41'0 0.0
2019-Oct-16 06:24N 43°18' E 006°41'512.6
2019-Oct-16 06:00N 43°18' E 006°48'713.4
2019-Oct-16 05:29N 43°17' E 006°57'714.0
2019-Oct-16 05:00N 43°17' E 007°07'714.4
2019-Oct-16 04:30N 43°16' E 007°16'714.4
2019-Oct-16 04:00N 43°15' E 007°26'713.8
2019-Oct-16 03:31N 43°15' E 007°36'612.8
2019-Oct-16 03:01N 43°14' E 007°44'611.9
2019-Oct-16 02:30N 43°13' E 007°52'611.4
2019-Oct-16 02:01N 43°13' E 008°00'510.9
2019-Oct-16 01:30N 43°13' E 008°08'611.0
2019-Oct-16 01:00N 43°12' E 008°15'611.2
2019-Oct-16 00:31N 43°12' E 008°23'911.2
2019-Oct-15 23:44N 43°11' E 008°35'4011.4
2019-Oct-15 20:10N 43°07' E 009°30'210.6
2019-Oct-15 19:58N 43°07' E 009°33'510.4
2019-Oct-15 19:30N 43°04' E 009°38'2311.3
2019-Oct-15 17:30N 42°53' E 010°05'1214.0
2019-Oct-15 16:41N 42°50' E 010°20'15 1.2
2019-Oct-15 04:07N 43°01' E 010°06'211.5
2019-Oct-15 03:58N 43°02' E 010°05'511.6
2019-Oct-15 03:30N 43°06' E 009°60'611.8
2019-Oct-15 03:00N 43°10' E 009°54'612.2
2019-Oct-15 02:30N 43°12' E 009°46'612.0
2019-Oct-15 02:00N 43°13' E 009°38'612.2
2019-Oct-15 01:30N 43°14' E 009°30'612.1
2019-Oct-15 01:00N 43°16' E 009°22'611.8
2019-Oct-15 00:30N 43°18' E 009°14'611.6
2019-Oct-15 00:00N 43°19' E 009°06'611.4
2019-Oct-14 23:30N 43°21' E 008°59'711.9
2019-Oct-14 22:57N 43°22' E 008°50'612.2
2019-Oct-14 22:30N 43°24' E 008°42'611.9
2019-Oct-14 22:00N 43°25' E 008°34'1713.3
2019-Oct-14 20:42N 43°29' E 008°11'314.1
2019-Oct-14 20:29N 43°30' E 008°07'714.1
2019-Oct-14 20:00N 43°32' E 007°58'714.0
2019-Oct-14 19:30N 43°34' E 007°49'713.6
2019-Oct-14 19:00N 43°35' E 007°40'713.2
2019-Oct-14 18:30N 43°37' E 007°31'611.9
2019-Oct-14 18:00N 43°38' E 007°23'5 9.8
2019-Oct-14 17:30N 43°40' E 007°17'2 4.0
2019-Oct-14 17:00N 43°42' E 007°17'0 0.1
2019-Oct-14 16:30N 43°42' E 007°17'0 0.0
2019-Oct-14 16:00N 43°42' E 007°17'0 0.0
2019-Oct-14 15:30N 43°42' E 007°17'0 0.0
2019-Oct-14 15:00N 43°42' E 007°17'0 0.0
2019-Oct-14 14:30N 43°42' E 007°17'0 0.0
2019-Oct-14 14:00N 43°42' E 007°17'0 0.0
2019-Oct-14 13:30N 43°42' E 007°17'0 0.0
2019-Oct-14 13:00N 43°42' E 007°17'0 0.0
2019-Oct-14 12:30N 43°42' E 007°17'0 0.0
2019-Oct-14 12:00N 43°42' E 007°17'0 0.0
2019-Oct-14 11:30N 43°42' E 007°17'0 0.0
2019-Oct-14 11:00N 43°42' E 007°17'0 0.0
2019-Oct-14 10:30N 43°42' E 007°17'0 0.0
2019-Oct-14 10:00N 43°42' E 007°17'0 0.0
2019-Oct-14 09:27N 43°42' E 007°17'0 0.0
2019-Oct-14 09:00N 43°42' E 007°17'0 0.0
2019-Oct-14 08:30N 43°42' E 007°17'0 0.0
2019-Oct-14 08:00N 43°42' E 007°17'0 0.0
2019-Oct-14 07:30N 43°42' E 007°17'0 0.0
2019-Oct-14 07:00N 43°42' E 007°17'0 0.0
2019-Oct-14 06:30N 43°42' E 007°17'0 0.0
2019-Oct-14 06:00N 43°42' E 007°17'0 0.0
2019-Oct-14 05:30N 43°42' E 007°17'0 0.0
2019-Oct-14 05:00N 43°42' E 007°17'0 0.1
2019-Oct-14 04:30N 43°42' E 007°17'1 1.3
2019-Oct-14 04:00N 43°41' E 007°17'2 4.8
2019-Oct-14 03:30N 43°39' E 007°19'4 8.3
2019-Oct-14 03:00N 43°40' E 007°25'4 8.5
2019-Oct-14 02:30N 43°41' E 007°31'4 8.3
2019-Oct-14 02:00N 43°41' E 007°37'4 8.4
2019-Oct-14 01:30N 43°42' E 007°42'4 8.6
2019-Oct-14 01:00N 43°43' E 007°48'4 8.9
2019-Oct-14 00:30N 43°43' E 007°54'5 9.4
2019-Oct-14 00:00N 43°44' E 008°01'5 9.4
2019-Oct-13 23:30N 43°46' E 008°07'5 9.0
2019-Oct-13 22:59N 43°48' E 008°12'5 9.1
2019-Oct-13 22:29N 43°50' E 008°18'4 8.9
2019-Oct-13 22:00N 43°53' E 008°23'4 8.8
2019-Oct-13 21:30N 43°55' E 008°28'4 8.7
2019-Oct-13 21:00N 43°57' E 008°33'5 9.1
2019-Oct-13 20:30N 43°59' E 008°39'5 9.2
2019-Oct-13 20:00N 44°02' E 008°44'4 8.8
2019-Oct-13 19:30N 44°04' E 008°50'4 8.8
2019-Oct-13 19:00N 44°06' E 008°55'4 8.8
2019-Oct-13 18:30N 44°08' E 009°00'4 8.7
2019-Oct-13 18:00N 44°10' E 009°06'4 8.4
2019-Oct-13 17:30N 44°13' E 009°11'4 8.6
2019-Oct-13 17:00N 44°15' E 009°16'4 7.4
2019-Oct-13 16:28N 44°18' E 009°14'0 0.0
2019-Oct-13 15:58N 44°18' E 009°14'0 0.0
2019-Oct-13 15:28N 44°18' E 009°14'0 0.0
2019-Oct-13 14:52N 44°18' E 009°14'0 0.0
2019-Oct-13 14:28N 44°18' E 009°14'0 0.0
2019-Oct-13 13:58N 44°18' E 009°14'0 0.0
2019-Oct-13 13:28N 44°18' E 009°14'0 0.0
2019-Oct-13 12:58N 44°18' E 009°14'0 0.0
2019-Oct-13 12:28N 44°18' E 009°14'0 0.0
2019-Oct-13 11:55N 44°18' E 009°14'0 0.0
2019-Oct-13 11:28N 44°18' E 009°14'0 0.0
2019-Oct-13 10:52N 44°18' E 009°14'0 0.1
2019-Oct-13 10:28N 44°18' E 009°14'0 0.1
2019-Oct-13 09:52N 44°18' E 009°14'0 0.1
2019-Oct-13 09:22N 44°18' E 009°14'0 0.2
2019-Oct-13 08:55N 44°18' E 009°14'0 0.0
2019-Oct-13 08:19N 44°18' E 009°14'0 0.1
2019-Oct-13 07:58N 44°18' E 009°14'0 0.0
2019-Oct-13 07:22N 44°18' E 009°14'0 0.0
2019-Oct-13 06:37N 44°18' E 009°14'0 0.0
2019-Oct-13 06:22N 44°18' E 009°14'0 0.1
2019-Oct-13 05:55N 44°18' E 009°14'3 4.0
2019-Oct-13 05:15N 44°17' E 009°17'2 6.8
2019-Oct-13 05:00N 44°15' E 009°18'3 6.9
2019-Oct-13 04:30N 44°12' E 009°20'3 5.4
2019-Oct-13 04:00N 44°10' E 009°22'3 5.8
2019-Oct-13 03:30N 44°07' E 009°24'3 5.8
2019-Oct-13 03:00N 44°05' E 009°26'3 5.9
2019-Oct-13 02:30N 44°02' E 009°28'3 6.0
2019-Oct-13 02:00N 43°59' E 009°29'3 5.6
2019-Oct-13 01:30N 43°57' E 009°31'2 4.9
2019-Oct-13 01:00N 43°54' E 009°32'2 4.2
2019-Oct-13 00:30N 43°53' E 009°33'3 5.7
2019-Oct-13 00:00N 43°50' E 009°35'3 5.4
2019-Oct-12 23:30N 43°48' E 009°37'3 6.2
2019-Oct-12 23:00N 43°45' E 009°39'3 5.8
2019-Oct-12 22:30N 43°42' E 009°41'  
Track history (hours):
 
Tides and Currents Weather Stations Pressure Air Temp Water Temp Dewpoint Dewpoint Depression Visibility Wind Speed Wind Dir Waves Ship Positions

Club Med II

Operator: V.Ships Leisure S.A.M

Last reported at 2019-Oct-22 22:26 UTC. Time now 2019-Oct-23 00:46 UTC.
Position N 36°39' W 001°57'.

Length 187 m; draft 5.3 m.

Type: Ship. MMSI: 227194000.

Date/timePositionNaut miles runAvg speedWind from/ knotsBaromVisibWave heightAir tempDewpointWater temp
2019-Oct-22 22:26N 36°39' W 001°57'185 6.3
2019-Oct-21 17:15N 39°26' W 000°17'2 5.0
2019-Oct-21 16:55N 39°28' W 000°18'0 0.0
2019-Oct-21 16:25N 39°28' W 000°18'0 0.0
2019-Oct-21 15:55N 39°28' W 000°18'0 0.0
2019-Oct-21 15:25N 39°28' W 000°18'0 0.0
2019-Oct-21 14:58N 39°28' W 000°18'0 0.0
2019-Oct-21 14:25N 39°28' W 000°18'0 0.0
2019-Oct-21 13:55N 39°28' W 000°18'0 0.0
2019-Oct-21 13:25N 39°28' W 000°18'0 0.0
2019-Oct-21 12:55N 39°28' W 000°18'0 0.0
2019-Oct-21 12:28N 39°28' W 000°18'0 0.0
2019-Oct-21 11:58N 39°28' W 000°18'0 0.0
2019-Oct-21 11:28N 39°28' W 000°18'0 0.0
2019-Oct-21 10:55N 39°28' W 000°18'0 0.0
2019-Oct-21 10:25N 39°28' W 000°18'0 0.0
2019-Oct-21 09:55N 39°28' W 000°18'0 0.0
2019-Oct-21 09:28N 39°28' W 000°18'0 0.0
2019-Oct-21 08:55N 39°28' W 000°18'0 0.0
2019-Oct-21 08:25N 39°28' W 000°18'0 0.0
2019-Oct-21 07:55N 39°28' W 000°18'0 0.0
2019-Oct-21 07:25N 39°28' W 000°18'0 0.0
2019-Oct-21 07:00N 39°28' W 000°18'1 2.3
2019-Oct-21 06:30N 39°27' W 000°18'4 7.2
2019-Oct-21 06:00N 39°24' W 000°14'93 9.6
2019-Oct-20 20:17N 39°01' E 001°42'410.0
2019-Oct-20 19:54N 38°57' E 001°42'410.2
2019-Oct-20 19:30N 38°56' E 001°37'510.6
2019-Oct-20 19:00N 38°54' E 001°30'3 0.2
2019-Oct-20 05:59N 38°55' E 001°27'0 0.6
2019-Oct-20 05:29N 38°54' E 001°27'4 9.0
2019-Oct-20 04:59N 38°54' E 001°32'5213.2
2019-Oct-20 01:01N 39°03' E 002°38'013.1
2019-Oct-20 01:00N 39°03' E 002°39'913.3
2019-Oct-20 00:20N 39°05' E 002°50'513.4
2019-Oct-19 23:59N 39°05' E 002°56'913.6
2019-Oct-19 23:19N 39°10' E 003°06'1713.6
2019-Oct-19 22:06N 39°19' E 003°24'513.6
2019-Oct-19 21:45N 39°21' E 003°29'267 5.7
2019-Oct-17 22:55N 43°02' E 006°49'13 7.1
2019-Oct-17 21:03N 43°14' E 006°58'0 7.4
2019-Oct-17 21:00N 43°14' E 006°59'4 7.3
2019-Oct-17 20:31N 43°17' E 007°01'4 7.3
2019-Oct-17 20:00N 43°21' E 007°04'4 7.2
2019-Oct-17 19:30N 43°24' E 007°06'4 7.4
2019-Oct-17 19:00N 43°27' E 007°09'4 7.5
2019-Oct-17 18:30N 43°30' E 007°11'4 8.9
2019-Oct-17 18:01N 43°34' E 007°14'713.3
2019-Oct-17 17:30N 43°40' E 007°17'1 2.6
2019-Oct-17 17:00N 43°42' E 007°17'0 0.0
2019-Oct-17 16:30N 43°42' E 007°17'0 0.0
2019-Oct-17 16:00N 43°42' E 007°17'0 0.0
2019-Oct-17 15:30N 43°42' E 007°17'0 0.0
2019-Oct-17 15:00N 43°42' E 007°17'0 0.0
2019-Oct-17 14:30N 43°42' E 007°17'0 0.0
2019-Oct-17 14:00N 43°42' E 007°17'0 0.0
2019-Oct-17 13:30N 43°42' E 007°17'0 0.0
2019-Oct-17 13:00N 43°42' E 007°17'0 0.0
2019-Oct-17 12:30N 43°42' E 007°17'0 0.0
2019-Oct-17 12:00N 43°42' E 007°17'0 0.0
2019-Oct-17 11:30N 43°42' E 007°17'0 0.0
2019-Oct-17 11:00N 43°42' E 007°17'0 0.0
2019-Oct-17 10:30N 43°42' E 007°17'0 0.0
2019-Oct-17 10:00N 43°42' E 007°17'0 0.0
2019-Oct-17 09:30N 43°42' E 007°17'0 0.0
2019-Oct-17 09:00N 43°42' E 007°17'0 0.0
2019-Oct-17 08:30N 43°42' E 007°17'0 0.0
2019-Oct-17 08:00N 43°42' E 007°17'0 0.0
2019-Oct-17 07:30N 43°42' E 007°17'0 0.0
2019-Oct-17 07:00N 43°42' E 007°17'0 0.0
2019-Oct-17 06:30N 43°42' E 007°17'0 0.0
2019-Oct-17 06:00N 43°42' E 007°17'0 0.0
2019-Oct-17 05:30N 43°42' E 007°17'0 0.0
2019-Oct-17 05:00N 43°42' E 007°17'0 0.6
2019-Oct-17 04:30N 43°41' E 007°17'3 5.8
2019-Oct-17 04:00N 43°38' E 007°17'3 6.7
2019-Oct-17 03:30N 43°35' E 007°16'4 8.1
2019-Oct-17 03:01N 43°31' E 007°15'4 8.0
2019-Oct-17 02:31N 43°28' E 007°12'4 8.5
2019-Oct-17 02:01N 43°26' E 007°07'4 7.2
2019-Oct-17 01:31N 43°24' E 007°03'4 7.2
2019-Oct-17 01:01N 43°22' E 006°59'4 7.4
2019-Oct-17 00:30N 43°20' E 006°54'3 7.0
2019-Oct-17 00:01N 43°18' E 006°50'5 6.8
2019-Oct-16 23:18N 43°18' E 006°44'2 7.0
2019-Oct-16 22:59N 43°18' E 006°41'0 0.0
2019-Oct-16 06:24N 43°18' E 006°41'512.6
2019-Oct-16 06:00N 43°18' E 006°48'713.4
2019-Oct-16 05:29N 43°17' E 006°57'714.0
2019-Oct-16 05:00N 43°17' E 007°07'714.4
2019-Oct-16 04:30N 43°16' E 007°16'714.4
2019-Oct-16 04:00N 43°15' E 007°26'713.8
2019-Oct-16 03:31N 43°15' E 007°36'612.8
2019-Oct-16 03:01N 43°14' E 007°44'611.9
2019-Oct-16 02:30N 43°13' E 007°52'611.4
2019-Oct-16 02:01N 43°13' E 008°00'510.9
2019-Oct-16 01:30N 43°13' E 008°08'611.0
2019-Oct-16 01:00N 43°12' E 008°15'611.2
2019-Oct-16 00:31N 43°12' E 008°23'911.2
2019-Oct-15 23:44N 43°11' E 008°35'4011.4
2019-Oct-15 20:10N 43°07' E 009°30'210.6
2019-Oct-15 19:58N 43°07' E 009°33'510.4
2019-Oct-15 19:30N 43°04' E 009°38'2311.3
2019-Oct-15 17:30N 42°53' E 010°05'1214.0
2019-Oct-15 16:41N 42°50' E 010°20'15 1.2
2019-Oct-15 04:07N 43°01' E 010°06'211.5
2019-Oct-15 03:58N 43°02' E 010°05'511.6
2019-Oct-15 03:30N 43°06' E 009°60'611.8
2019-Oct-15 03:00N 43°10' E 009°54'612.2
2019-Oct-15 02:30N 43°12' E 009°46'612.0
2019-Oct-15 02:00N 43°13' E 009°38'612.2
2019-Oct-15 01:30N 43°14' E 009°30'612.1
2019-Oct-15 01:00N 43°16' E 009°22'611.8
2019-Oct-15 00:30N 43°18' E 009°14'611.6
2019-Oct-15 00:00N 43°19' E 009°06'611.4
2019-Oct-14 23:30N 43°21' E 008°59'711.9
2019-Oct-14 22:57N 43°22' E 008°50'612.2
2019-Oct-14 22:30N 43°24' E 008°42'611.9
2019-Oct-14 22:00N 43°25' E 008°34'1713.3
2019-Oct-14 20:42N 43°29' E 008°11'314.1
2019-Oct-14 20:29N 43°30' E 008°07'714.1
2019-Oct-14 20:00N 43°32' E 007°58'714.0
2019-Oct-14 19:30N 43°34' E 007°49'713.6
2019-Oct-14 19:00N 43°35' E 007°40'713.2
2019-Oct-14 18:30N 43°37' E 007°31'611.9
2019-Oct-14 18:00N 43°38' E 007°23'5 9.8
2019-Oct-14 17:30N 43°40' E 007°17'2 4.0
2019-Oct-14 17:00N 43°42' E 007°17'0 0.1
2019-Oct-14 16:30N 43°42' E 007°17'0 0.0
2019-Oct-14 16:00N 43°42' E 007°17'0 0.0
2019-Oct-14 15:30N 43°42' E 007°17'0 0.0
2019-Oct-14 15:00N 43°42' E 007°17'0 0.0
2019-Oct-14 14:30N 43°42' E 007°17'0 0.0
2019-Oct-14 14:00N 43°42' E 007°17'0 0.0
2019-Oct-14 13:30N 43°42' E 007°17'0 0.0
2019-Oct-14 13:00N 43°42' E 007°17'0 0.0
2019-Oct-14 12:30N 43°42' E 007°17'0 0.0
2019-Oct-14 12:00N 43°42' E 007°17'0 0.0
2019-Oct-14 11:30N 43°42' E 007°17'0 0.0
2019-Oct-14 11:00N 43°42' E 007°17'0 0.0
2019-Oct-14 10:30N 43°42' E 007°17'0 0.0
2019-Oct-14 10:00N 43°42' E 007°17'0 0.0
2019-Oct-14 09:27N 43°42' E 007°17'0 0.0
2019-Oct-14 09:00N 43°42' E 007°17'0 0.0
2019-Oct-14 08:30N 43°42' E 007°17'0 0.0
2019-Oct-14 08:00N 43°42' E 007°17'0 0.0
2019-Oct-14 07:30N 43°42' E 007°17'0 0.0
2019-Oct-14 07:00N 43°42' E 007°17'0 0.0
2019-Oct-14 06:30N 43°42' E 007°17'0 0.0
2019-Oct-14 06:00N 43°42' E 007°17'0 0.0
2019-Oct-14 05:30N 43°42' E 007°17'0 0.0
2019-Oct-14 05:00N 43°42' E 007°17'0 0.1
2019-Oct-14 04:30N 43°42' E 007°17'1 1.3
2019-Oct-14 04:00N 43°41' E 007°17'2 4.8
2019-Oct-14 03:30N 43°39' E 007°19'4 8.3
2019-Oct-14 03:00N 43°40' E 007°25'4 8.5
2019-Oct-14 02:30N 43°41' E 007°31'4 8.3
2019-Oct-14 02:00N 43°41' E 007°37'4 8.4
2019-Oct-14 01:30N 43°42' E 007°42'4 8.6
2019-Oct-14 01:00N 43°43' E 007°48'4 8.9
2019-Oct-14 00:30N 43°43' E 007°54'5 9.4
2019-Oct-14 00:00N 43°44' E 008°01'5 9.4
2019-Oct-13 23:30N 43°46' E 008°07'5 9.0
2019-Oct-13 22:59N 43°48' E 008°12'5 9.1
2019-Oct-13 22:29N 43°50' E 008°18'4 8.9
2019-Oct-13 22:00N 43°53' E 008°23'4 8.8
2019-Oct-13 21:30N 43°55' E 008°28'4 8.7
2019-Oct-13 21:00N 43°57' E 008°33'5 9.1
2019-Oct-13 20:30N 43°59' E 008°39'5 9.2
2019-Oct-13 20:00N 44°02' E 008°44'4 8.8
2019-Oct-13 19:30N 44°04' E 008°50'4 8.8
2019-Oct-13 19:00N 44°06' E 008°55'4 8.8
2019-Oct-13 18:30N 44°08' E 009°00'4 8.7
2019-Oct-13 18:00N 44°10' E 009°06'4 8.4
2019-Oct-13 17:30N 44°13' E 009°11'4 8.6
2019-Oct-13 17:00N 44°15' E 009°16'4 7.4
2019-Oct-13 16:28N 44°18' E 009°14'0 0.0
2019-Oct-13 15:58N 44°18' E 009°14'0 0.0
2019-Oct-13 15:28N 44°18' E 009°14'0 0.0
2019-Oct-13 14:52N 44°18' E 009°14'0 0.0
2019-Oct-13 14:28N 44°18' E 009°14'0 0.0
2019-Oct-13 13:58N 44°18' E 009°14'0 0.0
2019-Oct-13 13:28N 44°18' E 009°14'0 0.0
2019-Oct-13 12:58N 44°18' E 009°14'0 0.0
2019-Oct-13 12:28N 44°18' E 009°14'0 0.0
2019-Oct-13 11:55N 44°18' E 009°14'0 0.0
2019-Oct-13 11:28N 44°18' E 009°14'0 0.0
2019-Oct-13 10:52N 44°18' E 009°14'0 0.1
2019-Oct-13 10:28N 44°18' E 009°14'0 0.1
2019-Oct-13 09:52N 44°18' E 009°14'0 0.1
2019-Oct-13 09:22N 44°18' E 009°14'0 0.2
2019-Oct-13 08:55N 44°18' E 009°14'0 0.0
2019-Oct-13 08:19N 44°18' E 009°14'0 0.1
2019-Oct-13 07:58N 44°18' E 009°14'0 0.0
2019-Oct-13 07:22N 44°18' E 009°14'0 0.0
2019-Oct-13 06:37N 44°18' E 009°14'0 0.0
2019-Oct-13 06:22N 44°18' E 009°14'0 0.1
2019-Oct-13 05:55N 44°18' E 009°14'3 4.0
2019-Oct-13 05:15N 44°17' E 009°17'2 6.8
2019-Oct-13 05:00N 44°15' E 009°18'3 6.9
2019-Oct-13 04:30N 44°12' E 009°20'3 5.4
2019-Oct-13 04:00N 44°10' E 009°22'3 5.8
2019-Oct-13 03:30N 44°07' E 009°24'3 5.8
2019-Oct-13 03:00N 44°05' E 009°26'3 5.9
2019-Oct-13 02:30N 44°02' E 009°28'3 6.0
2019-Oct-13 02:00N 43°59' E 009°29'3 5.6
2019-Oct-13 01:30N 43°57' E 009°31'2 4.9
2019-Oct-13 01:00N 43°54' E 009°32'2 4.2
2019-Oct-13 00:30N 43°53' E 009°33'3 5.7
2019-Oct-13 00:00N 43°50' E 009°35'3 5.4
2019-Oct-12 23:30N 43°48' E 009°37'3 6.2
2019-Oct-12 23:00N 43°45' E 009°39'3 5.8
2019-Oct-12 22:30N 43°42' E 009°41'  

Dump ship's entire track history